Time;durP1;ratioP1;P1;durP2;ratioP2;P2;SDS_P1;SDS_P2;PMS_P1;PMS_P2;Temp;Humidity;BMP_temperature;BMP_pressure;BME280_temperature;BME280_humidity;BME280_pressure;Samples;Min_cycle;Max_cycle;Signal;HPM_P1;HPM_P2
2023/11/16 00:00:37;;;;;;;;;;;;;;;4.04;68.54;99009.03;5087508;28;20433;-64
2023/11/16 00:09:27;;;;;;;;;;;;;;;4.13;68.52;99006.50;5090020;28;19924;-64
2023/11/16 00:12:12;;;;;;;;;;;;;;;4.09;68.34;99006.47;5125432;27;19971;-64
2023/11/16 00:14:58;;;;;;;;;;;;;;;4.08;68.35;99003.06;5089730;28;19927;-64
2023/11/16 00:17:43;;;;;;;;;;;;;;;4.08;67.85;99005.63;5102464;28;19928;-64
2023/11/16 00:20:11;;;;;;;;;;;;;;;4.05;67.40;99003.88;5087660;28;19924;-64
2023/11/16 00:22:56;;;;;;;;;;;;;;;4.09;67.72;99014.19;5088516;28;19981;-64
2023/11/16 00:31:09;;;;;;;;;;;;;;;4.06;67.80;99009.91;5069524;28;19924;-64
2023/11/16 00:39:03;;;;;;;;;;;;;;;4.03;68.23;99017.63;5088465;28;19927;-63
2023/11/16 00:50:21;;;;;;;;;;;;;;;4.08;67.62;99018.50;5088427;28;20015;-64
2023/11/16 00:59:12;;;;;;;;;;;;;;;4.15;67.53;99020.25;5087951;28;20284;-64
2023/11/16 01:01:38;;;;;;;;;;;;;;;4.14;67.95;99013.38;5087099;28;19924;-64
2023/11/16 01:06:48;;;;;;;;;;;;;;;4.18;67.87;99021.97;5104201;28;20667;-63
2023/11/16 01:09:16;;;;;;;;;;;;;;;4.18;67.89;99022.84;5089088;28;19926;-64
2023/11/16 01:12:00;;;;;;;;;;;;;;;4.17;67.86;99023.69;5089872;28;21241;-64
2023/11/16 01:21:29;;;;;;;;;;;;;;;4.27;68.08;99026.31;5127421;27;20391;-64
2023/11/16 01:24:13;;;;;;;;;;;;;;;4.30;67.61;99032.34;5093333;28;19965;-63
2023/11/16 01:26:43;;;;;;;;;;;;;;;4.32;67.64;99033.19;5111562;27;19924;-63
2023/11/16 01:29:27;;;;;;;;;;;;;;;4.32;67.47;99032.31;5128886;27;19961;-64
2023/11/16 01:32:31;;;;;;;;;;;;;;;4.33;67.88;99029.78;5091533;28;19928;-64
2023/11/16 01:35:15;;;;;;;;;;;;;;;4.37;67.60;99033.22;5081594;28;20383;-63
2023/11/16 01:41:21;;;;;;;;;;;;;;;4.32;67.68;99035.78;5091268;28;19924;-64
2023/11/16 01:44:07;;;;;;;;;;;;;;;4.34;67.63;99035.78;5089947;28;19965;-63
2023/11/16 01:46:33;;;;;;;;;;;;;;;4.37;67.90;99035.78;5089363;28;19943;-65
2023/11/16 01:49:17;;;;;;;;;;;;;;;4.40;67.55;99040.09;5076132;28;21338;-65
2023/11/16 01:52:02;;;;;;;;;;;;;;;4.43;67.71;99038.41;5058881;28;19947;-63
2023/11/16 01:54:29;;;;;;;;;;;;;;;4.49;67.54;99040.13;5057794;28;19975;-64
2023/11/16 01:59:58;;;;;;;;;;;;;;;4.60;68.08;99042.75;5079841;28;19923;-64
2023/11/16 02:02:43;;;;;;;;;;;;;;;4.62;67.88;99047.06;5055708;28;20389;-64
2023/11/16 02:05:10;;;;;;;;;;;;;;;4.60;67.06;99048.78;5056502;28;20102;-64
2023/11/16 02:10:39;;;;;;;;;;;;;;;4.58;67.49;99045.31;5091006;28;19970;-64
2023/11/16 02:16:36;;;;;;;;;;;;;;;4.58;67.36;99047.91;5127235;27;20201;-65
2023/11/16 02:19:21;;;;;;;;;;;;;;;4.60;67.84;99051.34;5106909;27;19970;-64
2023/11/16 02:21:47;;;;;;;;;;;;;;;4.63;67.58;99048.78;5087637;28;19969;-64
2023/11/16 02:27:16;;;;;;;;;;;;;;;4.58;67.73;99049.59;5088808;28;19965;-64
2023/11/16 02:30:01;;;;;;;;;;;;;;;4.59;67.14;99048.75;5079843;28;19920;-63
2023/11/16 02:32:26;;;;;;;;;;;;;;;4.63;67.96;99053.06;5092602;28;19923;-64
2023/11/16 02:40:40;;;;;;;;;;;;;;;4.64;67.74;99047.91;5087711;28;19920;-64
2023/11/16 02:46:09;;;;;;;;;;;;;;;4.70;67.93;99047.09;5105302;27;19924;-63
2023/11/16 02:48:53;;;;;;;;;;;;;;;4.70;66.91;99049.66;5090247;28;19935;-64
2023/11/16 02:55:20;;;;;;;;;;;;;;;4.70;66.98;99059.09;5090699;28;19927;-64
2023/11/16 03:03:15;;;;;;;;;;;;;;;4.69;67.22;99058.25;5077621;28;19966;-67
2023/11/16 03:05:46;;;;;;;;;;;;;;;4.56;66.91;99061.63;5075148;28;19923;-67
2023/11/16 03:08:30;;;;;;;;;;;;;;;4.51;66.87;99064.19;5110161;27;19924;-66
2023/11/16 03:11:16;;;;;;;;;;;;;;;4.49;67.01;99064.19;5087538;28;20459;-67
2023/11/16 03:16:26;;;;;;;;;;;;;;;4.53;67.44;99065.06;5093256;28;20270;-66
2023/11/16 03:22:16;;;;;;;;;;;;;;;4.63;67.21;99078.84;5075429;28;21712;-66
2023/11/16 03:30:49;;;;;;;;;;;;;;;4.71;66.53;99074.56;5089146;28;19924;-64
2023/11/16 03:38:46;;;;;;;;;;;;;;;4.88;67.58;99077.19;5089799;28;20386;-64
2023/11/16 03:41:12;;;;;;;;;;;;;;;4.92;67.54;99078.91;5087971;28;19973;-64
2023/11/16 03:43:40;;;;;;;;;;;;;;;4.90;67.45;99079.78;5110421;27;19945;-64
2023/11/16 03:46:09;;;;;;;;;;;;;;;4.89;67.37;99086.66;5107234;27;19924;-64
2023/11/16 03:48:54;;;;;;;;;;;;;;;4.89;67.57;99088.38;5088791;28;19926;-63
2023/11/16 04:00:30;;;;;;;;;;;;;;;5.07;67.87;99090.16;5072030;28;21596;-65
2023/11/16 04:06:37;;;;;;;;;;;;;;;5.01;67.37;99096.13;5090229;28;19919;-64
2023/11/16 04:12:24;;;;;;;;;;;;;;;5.06;67.15;99102.16;5089411;28;20038;-64
2023/11/16 04:14:50;;;;;;;;;;;;;;;5.07;67.48;99105.63;5086171;28;20022;-64
2023/11/16 04:17:26;;;;;;;;;;;;;;;5.05;67.49;99108.19;5053678;28;19946;-64
2023/11/16 04:20:11;;;;;;;;;;;;;;;4.98;67.10;99103.84;5089239;28;20329;-64
2023/11/16 04:22:55;;;;;;;;;;;;;;;4.98;67.39;99109.00;5095425;28;20038;-64
2023/11/16 04:25:40;;;;;;;;;;;;;;;4.99;67.26;99105.56;5071448;28;20066;-64
2023/11/16 04:28:44;;;;;;;;;;;;;;;5.01;67.22;99106.44;5113088;27;20377;-65
2023/11/16 04:31:28;;;;;;;;;;;;;;;5.05;66.79;99109.91;5092142;28;20743;-64
2023/11/16 04:33:57;;;;;;;;;;;;;;;5.07;66.94;99116.78;5086925;28;19943;-63
2023/11/16 04:37:07;;;;;;;;;;;;;;;5.12;67.33;99114.22;5088596;28;19927;-63
2023/11/16 04:39:32;;;;;;;;;;;;;;;5.12;67.57;99112.50;5070130;28;20032;-65
2023/11/16 04:42:17;;;;;;;;;;;;;;;5.18;67.14;99115.97;5104520;28;19939;-64
2023/11/16 04:45:06;;;;;;;;;;;;;;;5.19;67.16;99117.66;5088421;28;20347;-63
2023/11/16 04:50:38;;;;;;;;;;;;;;;5.17;67.02;99117.66;5090443;28;19924;-64
2023/11/16 04:53:04;;;;;;;;;;;;;;;5.19;67.50;99125.38;5093468;28;19927;-63
2023/11/16 05:01:55;;;;;;;;;;;;;;;5.21;67.87;99128.84;5076611;28;19989;-63
2023/11/16 05:07:23;;;;;;;;;;;;;;;5.21;67.54;99132.28;5097687;27;19920;-63
2023/11/16 05:12:53;;;;;;;;;;;;;;;5.16;67.21;99141.72;5094825;28;19924;-64
2023/11/16 05:18:41;;;;;;;;;;;;;;;5.04;67.79;99139.97;5093311;28;20419;-63
2023/11/16 05:21:26;;;;;;;;;;;;;;;4.97;67.83;99135.66;5090530;28;19976;-66
2023/11/16 05:33:01;;;;;;;;;;;;;;;4.88;67.63;99145.94;5127184;27;19935;-63
2023/11/16 05:35:27;;;;;;;;;;;;;;;4.87;66.95;99157.13;5072766;28;19920;-67
2023/11/16 05:37:53;;;;;;;;;;;;;;;4.89;67.94;99152.84;5073568;28;19924;-67
2023/11/16 05:40:20;;;;;;;;;;;;;;;4.92;68.25;99158.84;5091043;28;19940;-67
2023/11/16 05:43:05;;;;;;;;;;;;;;;4.87;68.07;99155.38;5129180;27;19919;-64
2023/11/16 05:45:30;;;;;;;;;;;;;;;4.85;67.82;99166.56;5091881;28;19949;-65
2023/11/16 05:47:57;;;;;;;;;;;;;;;4.88;68.12;99164.84;5091979;28;19926;-65
2023/11/16 05:50:42;;;;;;;;;;;;;;;4.90;68.10;99164.88;5089881;28;19924;-64
2023/11/16 05:53:09;;;;;;;;;;;;;;;4.85;67.72;99161.41;5073097;28;20016;-65
2023/11/16 05:55:57;;;;;;;;;;;;;;;4.82;68.72;99163.09;5077623;28;20347;-65
2023/11/16 05:58:44;;;;;;;;;;;;;;;4.83;68.20;99170.00;5090031;28;20305;-68
2023/11/16 06:01:13;;;;;;;;;;;;;;;4.87;67.92;99163.13;5091670;28;21341;-67
2023/11/16 06:06:41;;;;;;;;;;;;;;;4.90;68.05;99170.03;5126294;27;19945;-66
2023/11/16 06:12:48;;;;;;;;;;;;;;;4.92;68.42;99165.75;5091164;28;19931;-66
2023/11/16 06:18:00;;;;;;;;;;;;;;;4.97;69.03;99175.22;5091495;28;19924;-65
2023/11/16 06:20:45;;;;;;;;;;;;;;;4.98;68.34;99183.78;5095561;28;19923;-66
2023/11/16 06:23:12;;;;;;;;;;;;;;;4.97;68.50;99182.06;5090342;28;19974;-67
2023/11/16 06:25:38;;;;;;;;;;;;;;;4.97;68.43;99179.50;5095928;27;19934;-65
2023/11/16 06:37:13;;;;;;;;;;;;;;;4.95;68.54;99192.38;5088080;28;19942;-66
2023/11/16 06:48:50;;;;;;;;;;;;;;;4.78;68.01;99191.44;5090847;28;20340;-66
2023/11/16 06:51:35;;;;;;;;;;;;;;;4.80;68.54;99195.75;5106611;27;19966;-65
2023/11/16 06:54:02;;;;;;;;;;;;;;;4.82;68.55;99188.88;5089254;28;19923;-66
2023/11/16 06:56:28;;;;;;;;;;;;;;;4.62;68.20;99159.56;5073142;28;19927;-66
2023/11/16 06:58:54;;;;;;;;;;;;;;;4.86;68.25;99201.78;5055944;28;19924;-66
2023/11/16 07:01:20;;;;;;;;;;;;;;;4.90;67.96;99200.97;5088000;28;19927;-66
2023/11/16 07:03:46;;;;;;;;;;;;;;;4.92;68.02;99197.53;5100142;28;20530;-65
2023/11/16 07:06:13;;;;;;;;;;;;;;;5.01;68.59;99201.84;5088596;28;20014;-66
2023/11/16 07:08:39;;;;;;;;;;;;;;;4.98;68.01;99201.84;5091059;28;20460;-66
2023/11/16 07:11:05;;;;;;;;;;;;;;;5.01;67.90;99204.44;5090344;28;19928;-65
2023/11/16 07:13:31;;;;;;;;;;;;;;;5.02;68.63;99208.75;5075799;28;20363;-66
2023/11/16 07:15:59;;;;;;;;;;;;;;;5.05;68.15;99213.06;5091114;28;22230;-65
2023/11/16 07:18:25;;;;;;;;;;;;;;;5.03;67.83;99212.19;5061969;28;20261;-66
2023/11/16 07:20:51;;;;;;;;;;;;;;;4.99;68.54;99211.31;5091703;28;20403;-66
2023/11/16 07:23:16;;;;;;;;;;;;;;;5.05;68.26;99211.34;5090155;28;20006;-65
2023/11/16 07:25:47;;;;;;;;;;;;;;;5.06;68.14;99213.06;5056275;28;20861;-66
2023/11/16 07:28:13;;;;;;;;;;;;;;;5.10;68.25;99213.94;5074830;28;20010;-65
2023/11/16 07:30:39;;;;;;;;;;;;;;;5.11;68.68;99216.53;5089739;28;19924;-66
2023/11/16 07:33:05;;;;;;;;;;;;;;;5.16;68.10;99223.44;5072528;28;19942;-66
2023/11/16 07:35:33;;;;;;;;;;;;;;;5.13;67.90;99225.13;5055044;28;19930;-66
2023/11/16 07:38:00;;;;;;;;;;;;;;;5.11;67.85;99219.09;5125096;27;19924;-67
2023/11/16 07:40:26;;;;;;;;;;;;;;;5.08;67.94;99229.41;5095195;28;20030;-66
2023/11/16 07:42:52;;;;;;;;;;;;;;;5.12;68.25;99227.69;5089020;28;19930;-66
2023/11/16 07:45:17;;;;;;;;;;;;;;;5.16;67.89;99226.84;5090094;28;20610;-66
2023/11/16 07:47:43;;;;;;;;;;;;;;;5.19;68.10;99233.72;5073624;28;20491;-67
2023/11/16 07:50:11;;;;;;;;;;;;;;;5.17;67.65;99235.47;5089808;28;20380;-66
2023/11/16 07:52:43;;;;;;;;;;;;;;;5.18;68.09;99235.47;5071267;28;20004;-66
2023/11/16 07:55:15;;;;;;;;;;;;;;;5.15;67.98;99245.75;5088603;28;20023;-65
2023/11/16 07:57:48;;;;;;;;;;;;;;;5.12;68.14;99238.00;5109183;27;20014;-65
2023/11/16 08:00:26;;;;;;;;;;;;;;;5.13;68.24;99242.31;5087646;28;19920;-65
2023/11/16 08:05:38;;;;;;;;;;;;;;;5.25;68.17;99237.22;5087732;28;19923;-66
2023/11/16 08:08:04;;;;;;;;;;;;;;;5.30;67.67;99238.97;5066768;28;19923;-66
2023/11/16 08:10:30;;;;;;;;;;;;;;;5.26;67.22;99240.66;5090113;28;19962;-67
2023/11/16 08:12:56;;;;;;;;;;;;;;;5.22;67.86;99242.38;5087153;28;19962;-66
2023/11/16 08:15:25;;;;;;;;;;;;;;;5.21;67.77;99238.06;5091943;28;20321;-66
2023/11/16 08:17:54;;;;;;;;;;;;;;;5.23;67.43;99245.78;5073311;28;19947;-65
2023/11/16 08:20:23;;;;;;;;;;;;;;;5.23;67.31;99244.09;5122665;27;19923;-66
2023/11/16 08:22:50;;;;;;;;;;;;;;;5.19;67.35;99244.94;5094239;28;19926;-66
2023/11/16 08:25:23;;;;;;;;;;;;;;;5.10;67.40;99243.19;5092892;28;20301;-65
2023/11/16 08:27:49;;;;;;;;;;;;;;;5.12;67.86;99250.91;5090291;28;19920;-66
2023/11/16 08:30:16;;;;;;;;;;;;;;;5.19;67.53;99246.63;5086478;28;20405;-65
2023/11/16 08:32:43;;;;;;;;;;;;;;;5.22;67.27;99251.81;5087464;28;19935;-65
2023/11/16 08:35:10;;;;;;;;;;;;;;;5.30;67.78;99257.88;5088250;28;20389;-66
2023/11/16 08:37:36;;;;;;;;;;;;;;;5.32;67.18;99253.59;5090592;28;19924;-65
2023/11/16 08:40:03;;;;;;;;;;;;;;;5.37;67.34;99254.47;5088234;28;19926;-66
2023/11/16 08:42:37;;;;;;;;;;;;;;;5.35;66.95;99255.28;5089061;28;19942;-66
2023/11/16 08:45:04;;;;;;;;;;;;;;;5.27;66.39;99255.28;5070640;28;19931;-67
2023/11/16 08:47:31;;;;;;;;;;;;;;;5.23;67.15;99250.94;5071322;28;19924;-66
2023/11/16 08:49:57;;;;;;;;;;;;;;;5.20;67.22;99250.94;5089829;28;20273;-66
2023/11/16 08:52:23;;;;;;;;;;;;;;;5.22;67.29;99255.25;5070007;28;20381;-66
2023/11/16 08:54:50;;;;;;;;;;;;;;;5.20;67.52;99254.41;5088166;28;19955;-66
2023/11/16 08:57:19;;;;;;;;;;;;;;;5.20;66.70;99256.97;5057760;28;20351;-66
2023/11/16 08:59:59;;;;;;;;;;;;;;;5.18;67.01;99253.53;5089515;28;19927;-66
2023/11/16 09:02:25;;;;;;;;;;;;;;;5.18;66.88;99265.56;5090736;28;19920;-66
2023/11/16 09:04:52;;;;;;;;;;;;;;;5.16;67.09;99267.28;5089626;28;19928;-66
2023/11/16 09:07:18;;;;;;;;;;;;;;;5.14;66.39;99269.84;5069577;28;19920;-66
2023/11/16 09:09:45;;;;;;;;;;;;;;;5.13;67.41;99266.41;5089261;28;19920;-65
2023/11/16 09:12:16;;;;;;;;;;;;;;;5.16;66.93;99262.97;5087867;28;19928;-65
2023/11/16 09:14:43;;;;;;;;;;;;;;;5.15;66.82;99263.81;5089754;28;19920;-66
2023/11/16 09:17:17;;;;;;;;;;;;;;;5.07;66.99;99265.53;5091497;28;19926;-65
2023/11/16 09:19:43;;;;;;;;;;;;;;;4.93;66.40;99262.88;5088401;28;19974;-65
2023/11/16 09:22:09;;;;;;;;;;;;;;;4.92;66.80;99262.00;5069693;28;19920;-66
2023/11/16 09:24:39;;;;;;;;;;;;;;;4.93;66.93;99263.72;5089345;28;19926;-67
2023/11/16 09:27:06;;;;;;;;;;;;;;;4.95;66.55;99262.00;5088322;28;19926;-66
2023/11/16 09:29:36;;;;;;;;;;;;;;;4.75;66.34;99235.25;5068424;28;19920;-65
2023/11/16 09:32:03;;;;;;;;;;;;;;;4.94;66.70;99265.44;5089002;28;19928;-65
2023/11/16 09:34:28;;;;;;;;;;;;;;;5.05;66.88;99272.38;5092626;28;19953;-65
2023/11/16 09:36:54;;;;;;;;;;;;;;;5.08;66.83;99278.41;5091597;27;19924;-65
2023/11/16 09:39:22;;;;;;;;;;;;;;;5.14;66.66;99267.25;5087971;28;19931;-66
2023/11/16 09:41:51;;;;;;;;;;;;;;;5.13;66.77;99266.41;5068362;28;20460;-66
2023/11/16 09:44:17;;;;;;;;;;;;;;;5.09;66.43;99274.97;5077835;28;19920;-65
2023/11/16 09:46:46;;;;;;;;;;;;;;;5.16;66.79;99270.72;5090187;28;19943;-66
2023/11/16 09:49:16;;;;;;;;;;;;;;;5.16;66.63;99269.84;5073402;28;19920;-66
2023/11/16 09:51:43;;;;;;;;;;;;;;;5.09;66.51;99280.13;5073193;28;20026;-65
2023/11/16 09:54:09;;;;;;;;;;;;;;;5.03;66.20;99274.94;5092803;28;19919;-65
2023/11/16 09:56:40;;;;;;;;;;;;;;;5.05;66.52;99273.22;5110529;27;19920;-66
2023/11/16 09:59:13;;;;;;;;;;;;;;;5.10;66.49;99276.69;5096904;28;19923;-67
2023/11/16 10:01:42;;;;;;;;;;;;;;;5.12;66.64;99279.28;5091913;28;19930;-66
2023/11/16 10:04:11;;;;;;;;;;;;;;;5.11;66.95;99274.97;5112987;27;20390;-65
2023/11/16 10:06:37;;;;;;;;;;;;;;;5.11;66.43;99278.44;5127897;27;19930;-65
2023/11/16 10:09:14;;;;;;;;;;;;;;;5.13;66.67;99279.31;5091081;28;19919;-65
2023/11/16 10:11:41;;;;;;;;;;;;;;;5.12;66.48;99275.00;5096221;28;20076;-66
2023/11/16 10:14:07;;;;;;;;;;;;;;;5.14;66.24;99277.56;5092126;28;19923;-66
2023/11/16 10:16:33;;;;;;;;;;;;;;;5.18;66.37;99281.91;5080014;28;19927;-66
2023/11/16 10:19:10;;;;;;;;;;;;;;;5.19;66.29;99278.47;5073871;28;20083;-65
2023/11/16 10:21:40;;;;;;;;;;;;;;;5.24;66.62;99281.94;5092427;28;20416;-65
2023/11/16 10:24:09;;;;;;;;;;;;;;;5.21;65.84;99283.63;5093115;28;20037;-66
2023/11/16 10:26:35;;;;;;;;;;;;;;;5.22;65.63;99282.75;5092312;28;19963;-66
2023/11/16 10:29:01;;;;;;;;;;;;;;;5.20;65.21;99287.94;5099081;28;19923;-65
2023/11/16 10:31:31;;;;;;;;;;;;;;;5.23;66.00;99293.09;5091858;28;19951;-65
2023/11/16 10:33:58;;;;;;;;;;;;;;;5.28;65.79;99293.13;5053862;28;19919;-66
2023/11/16 10:36:27;;;;;;;;;;;;;;;5.25;65.60;99293.09;5090093;28;19974;-66
2023/11/16 10:38:57;;;;;;;;;;;;;;;5.21;65.29;99294.81;5090675;28;20417;-65
2023/11/16 10:41:24;;;;;;;;;;;;;;;5.08;65.98;99301.63;5090521;28;19983;-66
2023/11/16 10:43:53;;;;;;;;;;;;;;;5.09;66.18;99299.88;5088225;28;20454;-65
2023/11/16 10:46:19;;;;;;;;;;;;;;;5.09;65.51;99303.34;5127180;27;19920;-66
2023/11/16 10:48:48;;;;;;;;;;;;;;;5.11;65.64;99303.34;5089279;28;20409;-66
2023/11/16 10:51:17;;;;;;;;;;;;;;;5.09;66.13;99307.63;5106041;27;19971;-65
2023/11/16 10:53:43;;;;;;;;;;;;;;;5.10;65.53;99306.78;5094517;28;19919;-66
2023/11/16 10:56:11;;;;;;;;;;;;;;;5.08;66.10;99308.47;5090438;28;19920;-66
2023/11/16 10:58:42;;;;;;;;;;;;;;;5.08;65.76;99316.22;5057294;28;19919;-65
2023/11/16 11:01:14;;;;;;;;;;;;;;;5.04;66.49;99306.75;5073555;28;19943;-66
2023/11/16 11:03:42;;;;;;;;;;;;;;;5.02;65.49;99313.63;5090685;28;19928;-65
2023/11/16 11:06:17;;;;;;;;;;;;;;;4.96;65.99;99315.31;5091458;28;19989;-66
2023/11/16 11:08:45;;;;;;;;;;;;;;;4.76;65.64;99281.66;5094535;27;20007;-66
2023/11/16 11:11:11;;;;;;;;;;;;;;;4.97;65.67;99311.00;5073595;28;21009;-65
2023/11/16 11:13:41;;;;;;;;;;;;;;;4.97;65.64;99326.47;5089952;28;19924;-66
2023/11/16 11:16:12;;;;;;;;;;;;;;;5.03;65.93;99320.50;5072856;28;19923;-65
2023/11/16 11:18:45;;;;;;;;;;;;;;;5.04;65.78;99315.34;5068632;28;19920;-65
2023/11/16 11:21:15;;;;;;;;;;;;;;;5.02;65.34;99317.06;5074017;28;19946;-67
2023/11/16 11:23:41;;;;;;;;;;;;;;;4.88;65.48;99313.53;5095250;28;19930;-66
2023/11/16 11:26:08;;;;;;;;;;;;;;;4.71;66.04;99297.94;5091955;28;20007;-65
2023/11/16 11:28:35;;;;;;;;;;;;;;;4.88;65.60;99316.13;5072907;28;19919;-66
2023/11/16 11:31:04;;;;;;;;;;;;;;;4.90;66.11;99319.56;5075157;28;19927;-67
2023/11/16 11:33:39;;;;;;;;;;;;;;;4.92;65.39;99323.03;5095822;28;19920;-67
2023/11/16 11:36:09;;;;;;;;;;;;;;;4.89;66.05;99325.56;5072505;28;19947;-65
2023/11/16 11:38:42;;;;;;;;;;;;;;;4.95;65.89;99328.22;5056240;28;19924;-66
2023/11/16 11:41:12;;;;;;;;;;;;;;;4.94;65.72;99327.31;5082241;28;19920;-66
2023/11/16 11:43:40;;;;;;;;;;;;;;;4.92;65.71;99326.44;5087721;28;20023;-65
2023/11/16 11:46:09;;;;;;;;;;;;;;;4.89;65.69;99328.16;5091659;28;20424;-65
2023/11/16 11:48:36;;;;;;;;;;;;;;;4.91;66.40;99336.75;5088269;28;20369;-64
2023/11/16 11:51:04;;;;;;;;;;;;;;;4.89;65.79;99335.88;5077646;28;19924;-65
2023/11/16 11:53:32;;;;;;;;;;;;;;;4.85;65.79;99341.88;5074881;28;19927;-66
2023/11/16 11:56:06;;;;;;;;;;;;;;;4.77;65.94;99337.50;5089704;28;19919;-67
2023/11/16 11:58:35;;;;;;;;;;;;;;;4.73;65.57;99343.53;5122582;27;19920;-65
2023/11/16 12:01:01;;;;;;;;;;;;;;;4.70;65.63;99345.19;5085634;28;19931;-64
2023/11/16 12:03:27;;;;;;;;;;;;;;;4.71;66.14;99340.06;5089354;28;19923;-65
2023/11/16 12:05:54;;;;;;;;;;;;;;;4.70;65.79;99343.50;5088110;28;19920;-66
2023/11/16 12:08:20;;;;;;;;;;;;;;;4.52;66.24;99347.63;5072128;28;19928;-65
2023/11/16 12:10:46;;;;;;;;;;;;;;;4.55;65.78;99353.66;5084230;28;19927;-65
2023/11/16 12:13:14;;;;;;;;;;;;;;;4.53;65.85;99359.66;5106511;27;19920;-66
2023/11/16 12:15:41;;;;;;;;;;;;;;;4.53;65.56;99372.53;5109651;27;20649;-65
2023/11/16 12:18:10;;;;;;;;;;;;;;;4.53;66.69;99361.38;5074555;28;20330;-66
2023/11/16 12:20:41;;;;;;;;;;;;;;;4.49;65.57;99360.50;5087825;28;20400;-65
2023/11/16 12:23:08;;;;;;;;;;;;;;;4.47;66.18;99372.50;5070555;28;20365;-66
2023/11/16 12:25:36;;;;;;;;;;;;;;;4.47;66.06;99364.78;5086535;28;19920;-65
2023/11/16 12:28:04;;;;;;;;;;;;;;;4.44;65.81;99366.44;5090125;28;19923;-65
2023/11/16 12:30:29;;;;;;;;;;;;;;;4.46;66.10;99375.94;5088536;28;19920;-66
2023/11/16 12:32:55;;;;;;;;;;;;;;;4.46;64.70;99370.78;5087459;28;20018;-66
2023/11/16 12:35:21;;;;;;;;;;;;;;;4.40;65.86;99381.03;5074116;28;19973;-67
2023/11/16 12:37:48;;;;;;;;;;;;;;;4.38;65.70;99377.56;5060940;28;20018;-66
2023/11/16 12:40:21;;;;;;;;;;;;;;;4.33;65.82;99379.22;5070778;28;19920;-65
2023/11/16 12:42:52;;;;;;;;;;;;;;;4.29;65.68;99377.50;5072603;28;19931;-66
2023/11/16 12:45:19;;;;;;;;;;;;;;;4.33;66.04;99384.38;5088056;28;20392;-66
2023/11/16 12:47:45;;;;;;;;;;;;;;;4.36;66.10;99385.31;5086076;28;19981;-66
2023/11/16 12:50:11;;;;;;;;;;;;;;;4.39;65.64;99384.44;5071501;28;19927;-65
2023/11/16 12:52:39;;;;;;;;;;;;;;;4.38;66.79;99390.44;5106742;28;19924;-66
2023/11/16 12:55:09;;;;;;;;;;;;;;;4.25;65.79;99388.63;5062109;28;20307;-66
2023/11/16 12:57:36;;;;;;;;;;;;;;;4.21;66.58;99392.84;5107349;28;19935;-65
2023/11/16 13:00:08;;;;;;;;;;;;;;;4.13;66.03;99391.91;5087038;28;20093;-66
2023/11/16 13:02:33;;;;;;;;;;;;;;;4.06;66.15;99389.28;5087508;28;19920;-65
2023/11/16 13:04:59;;;;;;;;;;;;;;;4.03;65.84;99386.66;5090568;28;19935;-66
2023/11/16 13:07:26;;;;;;;;;;;;;;;4.07;66.17;99392.72;5081608;28;19965;-65
2023/11/16 13:09:51;;;;;;;;;;;;;;;4.01;65.57;99395.22;5094615;28;19924;-67
2023/11/16 13:12:17;;;;;;;;;;;;;;;3.90;66.08;99395.09;5098775;28;19923;-66
2023/11/16 13:14:44;;;;;;;;;;;;;;;3.87;66.38;99406.22;5091444;28;19919;-65
2023/11/16 13:17:15;;;;;;;;;;;;;;;3.86;66.03;99406.19;5075740;28;19924;-65
2023/11/16 13:19:41;;;;;;;;;;;;;;;3.86;66.47;99407.06;5075913;28;19955;-66
2023/11/16 13:22:10;;;;;;;;;;;;;;;3.82;66.01;99409.59;5111468;27;20660;-66
2023/11/16 13:24:44;;;;;;;;;;;;;;;3.76;66.73;99405.22;5093793;28;20034;-67
2023/11/16 13:27:14;;;;;;;;;;;;;;;3.79;66.45;99410.41;5073941;28;19920;-66
2023/11/16 13:30:04;;;;;;;;;;;;;;;3.81;66.64;99415.56;5070497;28;19926;-67
2023/11/16 13:32:41;;;;;;;;;;;;;;;3.87;66.70;99416.50;5070085;28;19935;-67
2023/11/16 13:35:08;;;;;;;;;;;;;;;3.88;66.13;99410.50;5081970;28;20289;-66
2023/11/16 13:37:36;;;;;;;;;;;;;;;3.92;67.00;99420.00;5075110;28;19928;-66
2023/11/16 13:40:06;;;;;;;;;;;;;;;3.94;66.58;99425.19;5111100;27;20378;-66
2023/11/16 13:42:32;;;;;;;;;;;;;;;3.92;66.15;99432.03;5086249;28;19924;-66
2023/11/16 13:44:58;;;;;;;;;;;;;;;3.82;66.23;99430.16;5083026;28;19919;-66
2023/11/16 13:47:23;;;;;;;;;;;;;;;3.84;66.70;99426.78;5090332;28;20024;-66
2023/11/16 13:49:50;;;;;;;;;;;;;;;3.83;66.71;99430.22;5063037;28;19923;-66
2023/11/16 13:52:16;;;;;;;;;;;;;;;3.80;66.15;99429.28;5092756;28;20389;-65
2023/11/16 13:54:44;;;;;;;;;;;;;;;3.60;65.87;99428.19;5077792;28;19931;-65
2023/11/16 13:57:10;;;;;;;;;;;;;;;3.46;65.50;99440.88;5093026;28;19919;-65
2023/11/16 13:59:36;;;;;;;;;;;;;;;3.52;66.14;99439.22;5093259;28;19924;-66
2023/11/16 14:02:02;;;;;;;;;;;;;;;3.55;66.19;99444.41;5073222;28;20314;-66
2023/11/16 14:04:29;;;;;;;;;;;;;;;3.57;66.55;99451.31;5093135;28;19924;-66
2023/11/16 14:06:55;;;;;;;;;;;;;;;3.60;66.38;99453.06;5073817;28;20439;-66
2023/11/16 14:09:24;;;;;;;;;;;;;;;3.63;66.59;99450.53;5108051;27;19924;-66
2023/11/16 14:11:50;;;;;;;;;;;;;;;3.65;67.02;99455.69;5090737;28;19924;-65
2023/11/16 14:14:15;;;;;;;;;;;;;;;3.52;65.79;99449.53;5074740;28;20062;-66
2023/11/16 14:16:41;;;;;;;;;;;;;;;3.44;65.94;99457.09;5110787;27;20014;-66
2023/11/16 14:19:07;;;;;;;;;;;;;;;3.51;66.28;99458.09;5092723;28;20912;-66
2023/11/16 14:21:34;;;;;;;;;;;;;;;3.30;66.32;99460.34;5089260;28;19920;-67
2023/11/16 14:24:00;;;;;;;;;;;;;;;3.30;66.76;99454.34;5094785;28;21001;-67
2023/11/16 14:26:30;;;;;;;;;;;;;;;3.31;66.67;99456.09;5106907;27;19920;-66
2023/11/16 14:28:56;;;;;;;;;;;;;;;3.38;66.31;99467.31;5075163;28;20022;-66
2023/11/16 14:31:23;;;;;;;;;;;;;;;3.45;66.19;99467.44;5075027;28;19930;-65
2023/11/16 14:33:50;;;;;;;;;;;;;;;3.49;66.55;99463.19;5091352;28;19920;-68
2023/11/16 14:36:17;;;;;;;;;;;;;;;3.50;66.56;99457.19;5090641;28;19924;-65
2023/11/16 14:38:44;;;;;;;;;;;;;;;3.52;66.21;99470.97;5073191;28;19972;-66
2023/11/16 14:41:10;;;;;;;;;;;;;;;3.46;66.09;99468.28;5062552;28;19919;-66
2023/11/16 14:43:40;;;;;;;;;;;;;;;3.35;65.36;99464.69;5090578;28;19930;-65
2023/11/16 14:46:08;;;;;;;;;;;;;;;3.17;65.74;99454.16;5090985;27;20773;-66
2023/11/16 14:48:35;;;;;;;;;;;;;;;3.19;65.49;99471.31;5070957;28;19927;-68
2023/11/16 14:51:01;;;;;;;;;;;;;;;3.27;66.31;99478.31;5110278;27;19924;-67
2023/11/16 14:53:27;;;;;;;;;;;;;;;3.38;66.01;99477.63;5109796;27;19997;-67
2023/11/16 14:55:53;;;;;;;;;;;;;;;3.42;66.07;99474.25;5088903;28;20067;-66
2023/11/16 14:58:22;;;;;;;;;;;;;;;3.43;66.32;99486.25;5080205;28;20010;-66
2023/11/16 15:00:50;;;;;;;;;;;;;;;3.45;65.95;99484.56;5089594;28;20431;-66
2023/11/16 15:03:17;;;;;;;;;;;;;;;3.45;65.36;99487.13;5075916;28;19978;-66
2023/11/16 15:05:43;;;;;;;;;;;;;;;3.39;65.62;99494.78;5089054;28;19934;-66
2023/11/16 15:08:09;;;;;;;;;;;;;;;3.46;65.60;99499.16;5091157;28;20293;-67
2023/11/16 15:10:36;;;;;;;;;;;;;;;3.42;65.74;99499.97;5088597;28;19984;-66
2023/11/16 15:13:06;;;;;;;;;;;;;;;3.50;66.00;99502.66;5088641;28;19935;-66
2023/11/16 15:15:32;;;;;;;;;;;;;;;3.52;65.86;99500.97;5071113;28;19924;-66
2023/11/16 15:17:58;;;;;;;;;;;;;;;3.55;65.96;99496.72;5089671;28;19966;-65
2023/11/16 15:20:24;;;;;;;;;;;;;;;3.61;65.67;99508.81;5109447;27;19920;-66
2023/11/16 15:22:52;;;;;;;;;;;;;;;3.56;65.68;99513.91;5075504;28;19926;-66
2023/11/16 15:25:18;;;;;;;;;;;;;;;3.46;65.04;99506.88;5089147;28;20307;-66
2023/11/16 15:27:44;;;;;;;;;;;;;;;3.52;66.60;99512.13;5089943;28;19931;-66
2023/11/16 15:30:13;;;;;;;;;;;;;;;3.44;65.21;99521.41;5060020;28;19923;-66
2023/11/16 15:32:39;;;;;;;;;;;;;;;3.39;65.48;99513.63;5071146;28;19931;-66
2023/11/16 15:35:06;;;;;;;;;;;;;;;3.44;65.83;99516.28;5107064;27;19926;-65
2023/11/16 15:37:32;;;;;;;;;;;;;;;3.44;65.49;99518.84;5071385;28;20342;-66
2023/11/16 15:39:59;;;;;;;;;;;;;;;3.47;65.99;99527.50;5090783;28;20373;-66
2023/11/16 15:42:28;;;;;;;;;;;;;;;3.45;64.93;99515.44;5088976;28;19924;-65
2023/11/16 15:44:55;;;;;;;;;;;;;;;3.43;65.80;99528.28;5107796;27;19959;-65
2023/11/16 15:47:24;;;;;;;;;;;;;;;3.48;65.35;99520.63;5088112;28;19956;-66
2023/11/16 15:49:52;;;;;;;;;;;;;;;3.37;66.22;99502.47;5092234;28;19924;-65
2023/11/16 15:52:22;;;;;;;;;;;;;;;3.37;65.78;99528.19;5066508;28;19935;-66
2023/11/16 15:54:50;;;;;;;;;;;;;;;3.41;65.69;99524.81;5087511;28;19966;-66
2023/11/16 15:57:18;;;;;;;;;;;;;;;3.47;65.29;99524.94;5089847;28;19955;-67
2023/11/16 15:59:46;;;;;;;;;;;;;;;3.38;65.48;99526.50;5070814;28;19932;-66